Aérodrome :
LOGIN :

S'inscrire | Disclaimer

   EN    FR    IT 

 










Légende :    VFR   VFR Marginal   IFR   IFR Intensif   IFR Très Intensif
Visi : 
Plafond : 
>= 8 km
>= 3000ft
5 à 8 km
1000 à 3000 ft
1500m à 5 km
500 à 1000 ft
800 à 1500m
200 à 500 ft
< 800m
< 200 ft
Symboles :   Orages  Brouillard  Fortes neiges  Fortes précipitations  Vent > 20 kt
SIGMETs :   Divers  Orages  Givrage  Turbulence  Onde Orograph.  Cendres Volcan.






- Altitude de l'aérodrome : 297 ft
- Code IATA : UIP


LFRQ - Quimper Pluguffan

DERNIER METAR :
  • 121230Z AUTO 29021G35KT 9999 BKN017 BKN023 OVC029 12/10 Q0991 BECMG RA

METARs EXPIRÉS :
  • 121200Z AUTO 29018KT 9999 BKN014 BKN021 BKN027 12/11 Q0991 BECMG 24017G30KT RA SCT020 SCT040
  • 121130Z AUTO 29019G30KT 9999 FEW007 OVC015 12/11 Q0991 BECMG RA
  • 121100Z AUTO 24021G37KT 200V260 2800 -RA BR OVC005/// ///TCU 11/11 Q0991 TEMPO BKN004 SCT013CB BECMG 23016G27KT 8000 -RA
  • 121030Z AUTO 20015G25KT 160V240 2900 RA BR BKN005/// OVC010/// ///CB 11/10 Q0992 BECMG 8000 -RA SCT020 SCT040
  • 121000Z AUTO 20016KT 5000 RA BR OVC007/// ///CB 10/10 Q0993 TEMPO BKN004 SCT013CB BECMG 23016G27KT

TAF TAF LFRQ
Valide du 12 à 12h jusqu'au 13 à 12h UTC


121100Z 1212/1312 24017G30KT 8000 RA OVC007
BECMG 1212/1214 SCT020 SCT040
TEMPO 1215/1309 SHRA SCT011CB BKN020
BECMG 1222/1301 29023G41KT



MET'MAP, la Météo Aéronautique d'un coup d'oeil ! - Copyright ORBIFLY Décembre 2007 - Disclaimer

ORBIFLY MET'MAP TEAM :

Programmation & Développement : Alexandra Zaïnal
Sur une idée originale de : Baudouin d'Aumeries
Assistance à la programmation : Marc-Olivier Méhu
Soutien technique & logistique : Manuel Goepfert

Contact : metmap@orbifly.com




SOURCES & CREDITS :

   NOAA